Time;durP1;ratioP1;P1;durP2;ratioP2;P2;SDS_P1;SDS_P2;PMS_P1;PMS_P2;Temp;Humidity;BMP_temperature;BMP_pressure;BME280_temperature;BME280_humidity;BME280_pressure;Samples;Min_cycle;Max_cycle;Signal;HPM_P1;HPM_P2
2022/09/03 00:02:35;;;;;;;4.93;4.53;;;;;;;24.29;49.77;95010.56;6183217;28;103023;-70
2022/09/03 00:05:43;;;;;;;4.17;3.87;;;;;;;24.30;49.68;95017.47;6156204;28;103145;-71
2022/09/03 00:08:53;;;;;;;5.60;5.07;;;;;;;24.24;49.72;95024.91;6183591;28;102852;-70
2022/09/03 00:12:04;;;;;;;4.70;4.40;;;;;;;24.26;49.83;95028.03;6154830;28;103159;-69
2022/09/03 00:15:10;;;;;;;4.60;4.20;;;;;;;24.29;49.87;95027.38;6138957;28;103164;-69
2022/09/03 00:18:17;;;;;;;5.30;4.80;;;;;;;24.26;49.76;95022.69;6164009;28;102978;-70
2022/09/03 00:21:28;;;;;;;4.80;4.40;;;;;;;24.31;49.60;95035.09;6180852;28;103002;-71
2022/09/03 00:24:36;;;;;;;4.60;4.20;;;;;;;24.28;49.62;95020.47;6185583;28;103325;-69
2022/09/03 00:27:43;;;;;;;4.60;4.30;;;;;;;24.28;49.97;95025.81;6150968;28;102813;-68
2022/09/03 00:30:55;;;;;;;4.43;4.03;;;;;;;24.32;49.79;95031.31;6161393;28;103281;-71
2022/09/03 00:34:03;;;;;;;5.17;4.30;;;;;;;24.33;49.58;95028.31;6181821;28;103067;-70
2022/09/03 00:37:09;;;;;;;4.70;4.30;;;;;;;24.30;49.76;95020.94;6182910;28;103355;-66
2022/09/03 00:40:31;;;;;;;5.00;4.60;;;;;;;24.27;49.68;95015.44;6167974;28;103107;-70
2022/09/03 00:43:50;;;;;;;5.20;4.70;;;;;;;24.26;49.47;95011.19;6164050;28;103554;-69
2022/09/03 00:46:59;;;;;;;5.43;4.47;;;;;;;24.30;49.37;95017.47;6174417;28;103361;-70
2022/09/03 00:50:11;;;;;;;5.00;4.60;;;;;;;24.26;49.35;95005.84;6163739;28;104225;-68
2022/09/03 00:53:25;;;;;;;5.40;4.90;;;;;;;24.26;49.38;95020.00;6162791;28;103422;-71
2022/09/03 00:56:38;;;;;;;5.00;4.60;;;;;;;24.32;49.02;95018.72;6179139;28;103192;-70
2022/09/03 00:59:55;;;;;;;4.93;4.53;;;;;;;24.29;49.20;95023.94;6185075;28;103299;-69
2022/09/03 01:03:07;;;;;;;5.30;4.80;;;;;;;24.31;49.13;95024.38;6143359;28;103731;-70
2022/09/03 01:06:19;;;;;;;5.20;4.70;;;;;;;24.26;49.12;95022.69;6168151;28;103466;-70
2022/09/03 01:09:37;;;;;;;5.20;4.80;;;;;;;24.28;49.24;95014.34;6183085;28;103084;-70
2022/09/03 01:12:53;;;;;;;5.20;4.80;;;;;;;24.27;48.92;95016.22;6161887;28;103324;-68
2022/09/03 01:16:10;;;;;;;5.03;4.63;;;;;;;24.25;49.01;95013.09;6186089;28;103249;-72
2022/09/03 01:19:38;;;;;;;5.40;5.00;;;;;;;24.23;49.22;95017.19;6186135;28;103412;-73
2022/09/03 01:23:06;;;;;;;5.40;5.00;;;;;;;24.29;49.01;95011.34;6143616;28;103214;-70
2022/09/03 01:26:26;;;;;;;5.30;4.90;;;;;;;24.22;49.18;95016.41;6161051;28;103220;-70
2022/09/03 01:29:38;;;;;;;5.20;4.80;;;;;;;24.24;49.21;95019.56;6161949;28;103037;-70
2022/09/03 01:32:49;;;;;;;5.87;5.37;;;;;;;24.23;48.77;95023.31;6177472;28;103047;-69
2022/09/03 01:35:59;;;;;;;5.40;4.90;;;;;;;24.23;49.01;95033.25;6165907;28;103320;-71
2022/09/03 01:39:06;;;;;;;6.90;4.60;;;;;;;24.20;48.73;95045.38;6175876;28;103223;-66
2022/09/03 01:42:19;;;;;;;5.57;5.17;;;;;;;24.15;48.82;95042.84;6172068;28;103236;-70
2022/09/03 01:45:43;;;;;;;4.80;4.50;;;;;;;24.13;49.12;95040.50;6168324;28;103173;-69
2022/09/03 01:49:04;;;;;;;5.30;4.90;;;;;;;24.14;48.99;95034.03;6159033;28;104568;-71
2022/09/03 01:52:12;;;;;;;6.50;5.50;;;;;;;24.17;48.56;95040.63;6172425;28;103092;-70
2022/09/03 01:55:31;;;;;;;5.57;5.17;;;;;;;24.15;48.77;95038.28;6184655;28;103189;-68
2022/09/03 01:58:41;;;;;;;4.90;4.50;;;;;;;24.14;48.77;95035.94;6163806;28;104475;-70
2022/09/03 02:01:53;;;;;;;4.90;4.50;;;;;;;24.13;48.67;95047.72;6164867;28;103193;-69
2022/09/03 02:05:01;;;;;;;5.83;4.70;;;;;;;24.11;48.77;95031.22;6179119;28;104964;-71
2022/09/03 02:08:06;;;;;;;5.07;4.57;;;;;;;24.17;48.76;95035.28;6177228;28;102986;-69
2022/09/03 02:11:11;;;;;;;5.40;5.00;;;;;;;24.13;48.48;95027.13;6182220;28;103625;-69
2022/09/03 02:14:14;;;;;;;4.57;4.20;;;;;;;24.11;48.19;95029.34;6185972;28;103339;-69
2022/09/03 02:17:18;;;;;;;4.53;4.13;;;;;;;24.01;48.55;95034.22;6181879;28;102985;-69
2022/09/03 02:20:25;;;;;;;5.23;4.83;;;;;;;24.00;48.49;95044.13;6149733;28;103206;-66
2022/09/03 02:23:29;;;;;;;5.20;4.80;;;;;;;24.02;48.53;95043.81;6163486;28;103209;-68
2022/09/03 02:26:32;;;;;;;6.13;4.47;;;;;;;24.10;48.54;95048.38;6187303;28;103171;-67
2022/09/03 02:29:35;;;;;;;5.30;4.80;;;;;;;24.07;48.29;95043.66;6182651;28;103252;-69
2022/09/03 02:32:40;;;;;;;4.40;4.00;;;;;;;24.09;48.28;95054.81;6171668;28;103043;-69
2022/09/03 02:35:44;;;;;;;5.10;4.63;;;;;;;23.93;48.77;95054.50;6173059;28;103040;-69
2022/09/03 02:38:47;;;;;;;5.17;4.67;;;;;;;23.80;48.95;95045.56;6168354;28;103584;-69
2022/09/03 02:41:54;;;;;;;5.77;5.27;;;;;;;23.74;48.65;95043.38;6161684;28;106114;-69
2022/09/03 02:45:04;;;;;;;4.77;4.47;;;;;;;23.72;48.95;95046.34;6160788;28;103156;-75
2022/09/03 02:48:10;;;;;;;5.47;5.07;;;;;;;23.88;48.60;95052.78;6166398;28;103220;-69
2022/09/03 02:51:13;;;;;;;4.93;4.53;;;;;;;23.92;48.82;95050.25;6188812;28;103170;-69
2022/09/03 02:54:17;;;;;;;5.57;5.17;;;;;;;23.93;48.39;95049.16;6168407;28;103278;-68
2022/09/03 02:57:23;;;;;;;6.67;6.17;;;;;;;23.90;48.52;95058.59;6172270;28;103430;-69
2022/09/03 03:00:29;;;;;;;5.77;5.30;;;;;;;23.78;48.39;95060.34;6182410;28;102725;-69
2022/09/03 03:03:34;;;;;;;5.70;5.20;;;;;;;23.58;48.41;95057.19;6163373;28;103598;-69
2022/09/03 03:06:37;;;;;;;5.60;5.20;;;;;;;23.74;48.52;95065.53;6153466;28;102830;-68
2022/09/03 03:09:40;;;;;;;5.40;5.00;;;;;;;23.86;48.45;95070.25;6180140;28;102826;-68
2022/09/03 03:12:44;;;;;;;6.27;5.77;;;;;;;23.80;48.43;95053.56;6187178;28;103252;-68
2022/09/03 03:15:47;;;;;;;5.87;5.47;;;;;;;23.89;48.27;95062.38;6182424;28;103103;-68
2022/09/03 03:18:52;;;;;;;5.70;5.30;;;;;;;23.90;48.04;95058.59;6173244;28;103315;-69
2022/09/03 03:21:55;;;;;;;5.43;4.93;;;;;;;23.95;48.16;95060.31;6164052;28;103369;-69
2022/09/03 03:24:59;;;;;;;5.87;5.37;;;;;;;24.00;48.23;95057.50;6176477;28;102953;-69
2022/09/03 03:28:03;;;;;;;6.23;5.70;;;;;;;24.04;48.15;95052.31;6178082;28;103061;-68
2022/09/03 03:31:07;;;;;;;6.27;5.77;;;;;;;23.99;48.10;95049.75;6178416;28;103275;-69
2022/09/03 03:34:12;;;;;;;5.43;4.90;;;;;;;24.02;47.81;95057.19;6162754;28;103749;-69
2022/09/03 03:37:15;;;;;;;5.73;5.23;;;;;;;23.96;48.14;95053.06;6172328;28;102884;-69
2022/09/03 03:40:19;;;;;;;5.83;5.43;;;;;;;24.00;48.06;95062.84;6176623;28;106148;-68
2022/09/03 03:43:22;;;;;;;5.40;5.00;;;;;;;23.96;47.84;95061.88;6187987;28;102825;-68
2022/09/03 03:46:29;;;;;;;5.47;4.97;;;;;;;23.99;48.01;95058.56;6177946;28;106060;-69
2022/09/03 03:49:33;;;;;;;5.57;5.17;;;;;;;23.95;48.13;95059.53;6186473;28;103422;-69
2022/09/03 03:52:36;;;;;;;5.60;5.20;;;;;;;24.01;48.02;95066.28;6128085;28;103792;-69
2022/09/03 03:55:40;;;;;;;5.30;4.90;;;;;;;24.01;47.88;95055.59;6169527;28;103079;-69
2022/09/03 03:58:44;;;;;;;5.97;5.47;;;;;;;23.98;48.02;95059.66;6163341;28;104898;-68
2022/09/03 04:01:49;;;;;;;5.53;5.07;;;;;;;24.00;47.80;95062.84;6158487;28;103026;-68
2022/09/03 04:04:54;;;;;;;6.93;5.37;;;;;;;23.96;47.76;95063.78;6185418;28;103099;-69
2022/09/03 04:08:02;;;;;;;5.97;5.47;;;;;;;23.95;47.76;95065.66;6187650;28;103040;-69
2022/09/03 04:11:07;;;;;;;5.40;5.00;;;;;;;23.96;47.79;95067.22;6174378;28;103238;-68
2022/09/03 04:14:10;;;;;;;4.67;4.37;;;;;;;23.94;47.67;95060.63;6170416;28;104193;-69
2022/09/03 04:17:14;;;;;;;4.97;4.67;;;;;;;23.95;47.89;95059.53;6182153;28;105622;-68
2022/09/03 04:20:18;;;;;;;6.07;5.57;;;;;;;24.01;48.05;95072.44;6164390;28;102807;-68
2022/09/03 04:23:21;;;;;;;5.23;4.73;;;;;;;23.88;47.53;95071.50;6162322;28;103626;-68
2022/09/03 04:26:28;;;;;;;5.53;4.93;;;;;;;24.00;47.66;95072.75;6166890;28;103270;-71
2022/09/03 04:29:31;;;;;;;6.10;5.60;;;;;;;24.02;47.61;95067.88;6174606;28;102813;-68
2022/09/03 04:32:52;;;;;;;5.50;5.10;;;;;;;24.00;47.71;95062.84;6179097;28;105881;-68
2022/09/03 04:36:05;;;;;;;5.03;4.53;;;;;;;23.95;47.83;95071.00;6159481;28;103516;-69
2022/09/03 04:39:08;;;;;;;5.37;4.97;;;;;;;24.03;47.70;95080.94;6167717;28;103358;-69
2022/09/03 04:42:11;;;;;;;5.80;5.33;;;;;;;24.01;47.69;95074.31;6161419;28;103288;-68
2022/09/03 04:45:17;;;;;;;5.87;5.37;;;;;;;24.04;47.78;95089.75;6161636;28;103248;-69
2022/09/03 04:48:20;;;;;;;5.07;4.60;;;;;;;24.02;47.56;95097.28;6151499;28;104007;-69
2022/09/03 04:51:27;;;;;;;5.23;4.83;;;;;;;24.00;47.75;95088.78;6175185;28;102973;-69
2022/09/03 04:54:30;;;;;;;6.13;5.63;;;;;;;24.00;47.55;95096.81;6167942;28;104362;-69
2022/09/03 04:57:36;;;;;;;6.60;6.00;;;;;;;23.98;47.61;95104.31;6186103;28;103265;-68
2022/09/03 05:00:39;;;;;;;5.87;5.37;;;;;;;24.02;48.15;95113.31;6151501;28;103090;-68
2022/09/03 05:03:43;;;;;;;5.80;5.40;;;;;;;24.02;48.01;95113.31;6173506;28;103590;-67
2022/09/03 05:06:48;;;;;;;6.50;5.17;;;;;;;24.05;47.65;95112.72;6186266;28;103268;-67
2022/09/03 05:09:51;;;;;;;5.77;5.37;;;;;;;24.00;47.72;95115.53;6173543;28;104103;-66
2022/09/03 05:12:59;;;;;;;5.43;5.00;;;;;;;24.00;48.04;95120.88;6172401;28;102872;-67
2022/09/03 05:16:05;;;;;;;5.40;5.00;;;;;;;23.97;48.23;95116.91;6182785;28;103458;-67
2022/09/03 05:19:09;;;;;;;6.50;5.10;;;;;;;24.03;48.18;95120.25;6162559;28;103016;-67
2022/09/03 05:22:20;;;;;;;6.30;5.80;;;;;;;24.06;48.15;95116.94;6168428;28;103019;-67
2022/09/03 05:25:23;;;;;;;8.53;5.70;;;;;;;24.08;47.84;95122.75;6175638;28;103024;-67
2022/09/03 05:28:27;;;;;;;5.90;5.30;;;;;;;24.07;48.48;95121.19;6173669;28;103265;-67
2022/09/03 05:31:31;;;;;;;5.17;4.70;;;;;;;24.08;48.28;95123.53;6179894;28;103873;-67
2022/09/03 05:34:34;;;;;;;5.40;5.00;;;;;;;24.12;48.14;95119.13;6175295;28;104786;-67
2022/09/03 05:37:39;;;;;;;6.40;5.20;;;;;;;24.14;47.77;95114.25;6183557;28;103253;-67
2022/09/03 05:40:42;;;;;;;5.77;5.30;;;;;;;24.13;47.91;95130.63;6183454;28;103361;-67
2022/09/03 05:43:50;;;;;;;5.73;5.23;;;;;;;24.14;48.13;95137.53;6133305;28;102834;-68
2022/09/03 05:46:53;;;;;;;5.67;5.27;;;;;;;24.11;48.26;95143.50;6153088;28;102968;-67
2022/09/03 05:49:57;;;;;;;5.83;5.33;;;;;;;24.05;48.17;95139.44;6163902;28;103199;-65
2022/09/03 05:53:01;;;;;;;5.17;4.77;;;;;;;24.00;47.91;95143.03;6161548;28;105954;-66
2022/09/03 05:56:06;;;;;;;6.27;5.77;;;;;;;23.98;48.03;95145.22;6168160;28;104334;-66
2022/09/03 05:59:12;;;;;;;14.50;5.00;;;;;;;24.03;48.41;95136.31;6174906;28;103751;-66
2022/09/03 06:02:16;;;;;;;6.43;5.80;;;;;;;24.09;48.40;95145.72;6160849;28;103023;-63
2022/09/03 06:05:21;;;;;;;6.07;5.43;;;;;;;24.13;48.16;95146.66;6162122;28;103096;-64
2022/09/03 06:08:26;;;;;;;6.93;6.33;;;;;;;24.16;47.88;95151.38;6154907;28;103382;-65
2022/09/03 06:11:31;;;;;;;7.07;6.37;;;;;;;24.17;48.16;95155.59;6183410;28;103489;-66
2022/09/03 06:14:34;;;;;;;5.90;5.50;;;;;;;24.18;48.02;95149.94;6164668;28;103225;-68
2022/09/03 06:17:38;;;;;;;9.00;7.00;;;;;;;24.22;48.00;95160.03;6150288;28;103341;-66
2022/09/03 06:20:41;;;;;;;12.30;6.67;;;;;;;24.23;48.11;95164.28;6174792;28;102946;-65
2022/09/03 06:23:50;;;;;;;7.30;6.60;;;;;;;24.24;48.60;95158.59;6184488;28;103030;-75
2022/09/03 06:26:53;;;;;;;6.73;6.23;;;;;;;24.26;48.58;95147.59;6185269;28;103218;-66
2022/09/03 06:29:58;;;;;;;7.63;7.00;;;;;;;24.25;48.18;95152.16;6174951;28;103368;-65
2022/09/03 06:33:01;;;;;;;8.13;7.03;;;;;;;24.26;48.38;95152.94;6183616;28;103611;-66
2022/09/03 06:36:06;;;;;;;7.53;6.83;;;;;;;24.28;48.37;95164.88;6185448;28;103149;-66
2022/09/03 06:39:12;;;;;;;7.43;6.70;;;;;;;24.26;48.43;95159.06;6183809;28;103320;-66
2022/09/03 06:42:15;;;;;;;7.07;6.37;;;;;;;24.29;48.47;95160.31;6174038;28;103169;-66
2022/09/03 06:45:18;;;;;;;7.60;6.90;;;;;;;24.28;48.33;95159.53;6183673;28;103451;-66
2022/09/03 06:48:21;;;;;;;6.57;6.03;;;;;;;24.28;48.41;95158.75;6184484;28;103408;-68
2022/09/03 06:51:26;;;;;;;7.27;6.47;;;;;;;24.27;48.45;95163.31;6184631;28;102803;-68
2022/09/03 06:54:30;;;;;;;7.93;7.13;;;;;;;24.28;48.80;95159.53;6176193;28;103134;-67
2022/09/03 06:57:33;;;;;;;7.37;6.67;;;;;;;24.31;48.57;95166.94;6185268;28;103284;-67
2022/09/03 07:00:37;;;;;;;7.57;6.77;;;;;;;24.31;48.30;95166.13;6185124;28;106406;-67
2022/09/03 07:03:41;;;;;;;7.23;6.63;;;;;;;24.31;48.41;95158.91;6175953;28;103113;-70
2022/09/03 07:06:45;;;;;;;10.33;8.50;;;;;;;24.33;48.50;95162.03;6184672;28;103249;-67
2022/09/03 07:09:50;;;;;;;7.90;7.20;;;;;;;24.34;48.34;95168.19;6187132;28;106150;-67
2022/09/03 07:12:55;;;;;;;8.50;7.70;;;;;;;24.35;48.43;95169.75;6188844;28;103329;-66
2022/09/03 07:16:00;;;;;;;12.03;8.47;;;;;;;24.43;48.06;95166.28;6178225;28;103787;-68
2022/09/03 07:19:04;;;;;;;9.67;8.77;;;;;;;24.46;48.73;95165.66;6188970;28;103149;-69
2022/09/03 07:22:09;;;;;;;9.57;8.73;;;;;;;24.61;48.86;95175.06;6188866;28;103544;-68
2022/09/03 07:25:13;;;;;;;9.50;8.60;;;;;;;24.53;48.62;95175.84;6188990;28;102985;-68
2022/09/03 07:28:16;;;;;;;9.53;7.97;;;;;;;24.52;49.00;95174.28;6179274;28;103279;-68
2022/09/03 07:31:24;;;;;;;9.40;8.50;;;;;;;24.47;48.98;95184.06;6184107;28;106145;-66
2022/09/03 07:34:29;;;;;;;8.20;7.50;;;;;;;24.50;48.52;95193.34;6163026;28;103072;-65
2022/09/03 07:37:32;;;;;;;8.97;8.07;;;;;;;24.57;49.02;95182.94;6150592;28;103402;-67
2022/09/03 07:40:38;;;;;;;8.97;8.17;;;;;;;24.60;49.31;95197.56;6153512;28;105029;-66
2022/09/03 07:43:43;;;;;;;8.37;7.70;;;;;;;24.61;48.37;95193.78;6156266;28;103319;-67
2022/09/03 07:46:46;;;;;;;11.33;9.80;;;;;;;24.60;49.49;95193.00;6154786;28;103155;-66
2022/09/03 07:49:50;;;;;;;10.47;9.50;;;;;;;24.62;48.89;95200.72;6146899;28;103186;-66
2022/09/03 07:52:57;;;;;;;9.67;8.53;;;;;;;24.60;48.74;95197.56;6156363;28;103182;-67
2022/09/03 07:56:06;;;;;;;8.80;7.90;;;;;;;24.49;49.34;95205.94;6170429;28;103485;-69
2022/09/03 07:59:10;;;;;;;8.60;7.80;;;;;;;24.59;49.33;95198.69;6179870;28;103198;-67
2022/09/03 08:02:13;;;;;;;9.17;8.37;;;;;;;24.69;49.93;95212.53;6172217;28;103143;-66
2022/09/03 08:05:20;;;;;;;9.47;8.10;;;;;;;24.70;49.89;95205.31;6163598;28;104359;-66
2022/09/03 08:08:23;;;;;;;9.50;8.70;;;;;;;24.70;50.10;95203.41;6157627;28;103150;-67
2022/09/03 08:11:28;;;;;;;9.30;8.40;;;;;;;24.71;50.72;95199.63;6169150;28;103192;-69
2022/09/03 08:14:31;;;;;;;8.70;7.80;;;;;;;24.72;51.01;95206.56;6151638;28;103232;-70
2022/09/03 08:17:34;;;;;;;9.60;7.30;;;;;;;24.62;49.58;95212.22;6158029;28;103284;-67
2022/09/03 08:20:39;;;;;;;8.63;7.73;;;;;;;24.65;50.51;95211.56;6156316;28;103108;-65
2022/09/03 08:23:43;;;;;;;9.80;8.20;;;;;;;24.76;50.68;95201.34;6146768;28;103272;-67
2022/09/03 08:26:48;;;;;;;19.60;8.63;;;;;;;24.81;51.72;95201.19;6164899;28;103043;-68
2022/09/03 08:29:54;;;;;;;10.60;8.47;;;;;;;24.83;51.47;95204.31;6177575;28;103068;-68
2022/09/03 08:32:57;;;;;;;13.23;8.60;;;;;;;24.88;51.06;95208.72;6162726;28;103076;-71
2022/09/03 08:36:00;;;;;;;9.90;8.37;;;;;;;24.83;49.51;95207.00;6155155;28;103264;-73
2022/09/03 08:39:08;;;;;;;8.83;8.00;;;;;;;24.78;49.71;95209.84;6166230;28;103342;-71
2022/09/03 08:42:39;;;;;;;7.57;6.97;;;;;;;24.80;49.41;95210.31;6170323;28;103113;-71
2022/09/03 08:45:43;;;;;;;7.97;7.17;;;;;;;24.88;49.06;95209.50;6150255;28;102894;-71
2022/09/03 08:48:47;;;;;;;7.90;7.20;;;;;;;24.85;48.16;95194.06;6175340;28;104026;-71
2022/09/03 08:51:53;;;;;;;7.47;6.10;;;;;;;24.85;49.04;95193.28;6180819;28;103410;-71
2022/09/03 08:55:02;;;;;;;8.43;7.63;;;;;;;24.88;49.30;95196.13;6177048;28;103221;-70
2022/09/03 08:58:12;;;;;;;8.40;7.70;;;;;;;24.88;49.05;95200.69;6173083;28;102796;-70
2022/09/03 09:01:24;;;;;;;8.50;7.80;;;;;;;24.90;49.26;95195.81;6185974;28;103082;-69
2022/09/03 09:04:47;;;;;;;8.77;7.97;;;;;;;24.92;49.32;95199.72;6185068;28;105612;-70
2022/09/03 09:07:59;;;;;;;8.60;7.53;;;;;;;24.91;49.49;95202.72;6170492;28;102943;-70
2022/09/03 09:11:08;;;;;;;8.53;7.83;;;;;;;24.91;48.90;95197.38;6161968;28;103420;-70
2022/09/03 09:14:19;;;;;;;8.10;7.50;;;;;;;24.96;49.20;95197.19;6186235;28;105849;-70
2022/09/03 09:17:34;;;;;;;9.17;8.47;;;;;;;24.96;48.97;95200.66;6178551;28;103418;-70
2022/09/03 09:20:43;;;;;;;11.57;10.40;;;;;;;24.95;49.44;95199.09;6158558;28;102921;-69
2022/09/03 09:23:48;;;;;;;14.60;9.43;;;;;;;24.91;49.24;95208.88;6162539;28;106776;-70
2022/09/03 09:26:57;;;;;;;9.90;8.90;;;;;;;24.93;49.50;95201.31;6169129;28;103263;-70
2022/09/03 09:30:05;;;;;;;9.80;8.90;;;;;;;24.94;49.21;95208.22;6163699;28;104882;-70
2022/09/03 09:33:08;;;;;;;9.77;8.87;;;;;;;24.92;49.25;95199.72;6154027;28;103137;-71
2022/09/03 09:36:15;;;;;;;12.23;11.00;;;;;;;24.96;49.12;95206.00;6171992;28;103455;-70
2022/09/03 09:39:18;;;;;;;12.10;10.53;;;;;;;24.95;49.13;95209.78;6171121;28;104074;-70
2022/09/03 09:42:22;;;;;;;11.43;10.23;;;;;;;24.96;49.27;95203.34;6157556;28;104038;-71
2022/09/03 09:45:27;;;;;;;11.20;10.00;;;;;;;25.00;49.35;95198.13;6170492;28;103289;-71
2022/09/03 09:48:33;;;;;;;12.70;11.40;;;;;;;25.07;50.15;95201.09;6162535;28;103292;-70
2022/09/03 09:51:36;;;;;;;16.40;11.40;;;;;;;25.13;50.61;95204.38;6162590;28;103289;-67
2022/09/03 09:54:40;;;;;;;22.63;12.93;;;;;;;25.17;50.84;95211.44;6152259;28;104145;-69
2022/09/03 09:57:43;;;;;;;19.60;12.00;;;;;;;25.24;50.65;95216.31;6177918;28;102964;-68
2022/09/03 10:01:02;;;;;;;20.90;11.57;;;;;;;25.38;54.85;95216.94;6161545;28;104061;-70
2022/09/03 10:04:12;;;;;;;19.53;14.03;;;;;;;25.30;51.37;95215.03;6169342;28;103975;-70
2022/09/03 10:07:24;;;;;;;23.63;14.87;;;;;;;25.29;51.15;95221.50;6156500;28;104437;-71
2022/09/03 10:10:33;;;;;;;19.80;16.00;;;;;;;25.26;51.43;95227.50;6172030;28;103515;-71
2022/09/03 10:13:43;;;;;;;25.00;16.80;;;;;;;25.19;51.45;95213.81;6160148;28;103240;-70
2022/09/03 10:16:55;;;;;;;20.53;16.87;;;;;;;25.23;51.02;95212.06;6150803;28;102975;-70
2022/09/03 10:23:30;;;;;;;22.73;19.30;;;;;;;25.26;51.97;95208.75;6166472;28;103493;-70
2022/09/03 10:26:36;;;;;;;30.33;22.13;;;;;;;25.23;51.97;95212.06;6184849;28;103003;-70
2022/09/03 10:29:41;;;;;;;27.23;22.03;;;;;;;25.24;51.67;95210.97;6174228;28;103114;-70
2022/09/03 10:32:59;;;;;;;29.53;22.57;;;;;;;25.24;51.25;95200.25;6177187;28;103061;-70
2022/09/03 10:36:13;;;;;;;28.40;19.70;;;;;;;25.25;50.87;95193.78;6160064;28;103234;-71
2022/09/03 10:39:36;;;;;;;25.60;18.77;;;;;;;25.25;50.97;95205.28;6150546;28;104781;-70
2022/09/03 10:42:54;;;;;;;23.50;19.07;;;;;;;25.28;50.79;95206.53;6159544;28;103118;-70
2022/09/03 10:46:05;;;;;;;22.93;18.13;;;;;;;25.30;50.79;95209.66;6164880;28;102942;-69
2022/09/03 10:49:23;;;;;;;21.57;19.13;;;;;;;25.27;50.42;95196.94;6164360;28;104058;-70
2022/09/03 10:52:31;;;;;;;22.13;17.10;;;;;;;25.24;50.52;95205.59;6154955;28;102993;-70
2022/09/03 10:55:46;;;;;;;22.00;17.37;;;;;;;25.21;50.34;95211.63;6139389;28;103438;-70
2022/09/03 10:59:05;;;;;;;22.30;17.87;;;;;;;25.17;50.55;95206.09;6165256;28;102971;-70
2022/09/03 11:02:27;;;;;;;17.17;15.27;;;;;;;25.12;50.19;95202.81;6179004;28;103212;-68
2022/09/03 11:05:38;;;;;;;17.23;12.70;;;;;;;25.07;49.14;95204.56;6189583;28;105467;-69
2022/09/03 11:08:47;;;;;;;14.33;12.40;;;;;;;25.09;49.14;95191.63;6180383;28;106458;-67
2022/09/03 11:11:55;;;;;;;14.33;11.47;;;;;;;25.18;49.11;95190.81;6163764;28;103003;-69
2022/09/03 11:15:04;;;;;;;10.80;9.80;;;;;;;25.14;48.32;95189.88;6153617;28;103420;-69
2022/09/03 11:18:16;;;;;;;10.97;9.87;;;;;;;25.17;48.54;95200.72;6164004;28;103072;-69
2022/09/03 11:21:24;;;;;;;9.70;8.90;;;;;;;25.16;48.04;95199.16;6163993;28;103261;-68
2022/09/03 11:24:31;;;;;;;9.50;8.70;;;;;;;25.13;47.46;95204.38;6159962;28;102748;-69
2022/09/03 11:27:52;;;;;;;8.67;7.97;;;;;;;25.00;46.95;95198.13;6160571;28;103282;-69
2022/09/03 11:31:24;;;;;;;8.27;7.60;;;;;;;24.93;46.99;95193.28;6163993;28;103418;-69
2022/09/03 11:34:30;;;;;;;6.87;6.27;;;;;;;24.91;46.82;95189.34;6164944;28;103291;-70
2022/09/03 11:37:50;;;;;;;8.50;7.80;;;;;;;24.88;47.50;95193.44;6143813;28;104167;-68
2022/09/03 11:41:00;;;;;;;10.73;8.33;;;;;;;24.82;47.17;95177.88;6184089;28;103070;-69
2022/09/03 11:44:17;;;;;;;8.43;7.73;;;;;;;24.85;47.12;95188.72;6180455;28;102993;-69
2022/09/03 11:47:23;;;;;;;8.33;7.47;;;;;;;24.87;46.87;95189.22;6158974;28;102922;-70
2022/09/03 11:50:29;;;;;;;8.70;7.90;;;;;;;24.87;47.04;95191.09;6165739;28;103196;-70
2022/09/03 11:53:37;;;;;;;9.33;8.50;;;;;;;24.88;46.94;95190.78;6178505;28;103498;-70
2022/09/03 11:56:42;;;;;;;8.87;8.13;;;;;;;24.90;46.88;95195.81;6171411;28;103267;-71
2022/09/03 11:59:45;;;;;;;9.27;8.40;;;;;;;24.97;46.72;95183.50;6173320;28;103960;-71
2022/09/03 12:02:52;;;;;;;9.07;8.23;;;;;;;24.96;46.64;95183.81;6186066;28;103022;-70
2022/09/03 12:06:31;;;;;;;8.10;7.50;;;;;;;24.93;47.11;95181.78;6187461;28;103765;-70
2022/09/03 12:09:56;;;;;;;8.47;7.87;;;;;;;24.95;47.09;95182.25;6166963;28;103239;-70
2022/09/03 12:13:15;;;;;;;7.83;7.23;;;;;;;24.94;46.98;95175.31;6172338;28;104007;-70
2022/09/03 12:16:45;;;;;;;8.20;7.50;;;;;;;24.94;47.01;95176.09;6164190;28;102957;-70
2022/09/03 12:19:53;;;;;;;6.60;6.13;;;;;;;24.92;46.88;95175.63;6154841;28;103858;-70
2022/09/03 12:22:56;;;;;;;8.20;6.87;;;;;;;24.95;47.01;95180.34;6153510;28;103607;-70
2022/09/03 12:26:04;;;;;;;6.77;6.27;;;;;;;24.93;47.02;95169.19;6184479;28;102961;-69
2022/09/03 12:29:22;;;;;;;8.03;7.43;;;;;;;24.93;47.44;95149.66;6170967;28;103411;-69
2022/09/03 12:32:35;;;;;;;7.50;6.90;;;;;;;24.95;47.42;95158.16;6164947;28;103146;-70
2022/09/03 12:35:39;;;;;;;7.60;7.10;;;;;;;24.94;47.40;95165.41;6163814;28;103305;-70
2022/09/03 12:39:08;;;;;;;7.30;6.70;;;;;;;24.95;47.56;95156.25;6151048;28;102738;-70
2022/09/03 12:42:23;;;;;;;7.30;6.80;;;;;;;24.95;47.50;95166.19;6158566;28;103071;-70
2022/09/03 12:45:27;;;;;;;7.33;6.80;;;;;;;24.98;47.67;95165.53;6159727;28;105498;-71
2022/09/03 12:48:54;;;;;;;7.37;6.77;;;;;;;24.96;47.21;95163.19;6169362;28;102801;-70
2022/09/03 12:52:21;;;;;;;7.07;6.57;;;;;;;25.00;47.79;95152.59;6172056;28;103323;-70
2022/09/03 12:55:35;;;;;;;7.63;7.03;;;;;;;25.03;47.69;95152.78;6152245;28;103045;-71
2022/09/03 12:58:48;;;;;;;7.33;6.57;;;;;;;25.11;47.75;95147.69;6173579;28;103217;-70
2022/09/03 13:01:54;;;;;;;7.83;6.70;;;;;;;25.11;48.20;95156.50;6178956;28;103119;-70
2022/09/03 13:04:58;;;;;;;7.17;6.50;;;;;;;25.15;47.92;95152.06;6161041;28;103140;-70
2022/09/03 13:08:04;;;;;;;6.70;6.30;;;;;;;25.14;47.97;95141.69;6148506;28;103001;-70
2022/09/03 13:11:07;;;;;;;9.07;6.60;;;;;;;25.21;48.09;95141.97;6161864;28;103283;-70
2022/09/03 13:14:16;;;;;;;7.73;7.03;;;;;;;25.25;47.74;95132.19;6159644;28;103168;-70
2022/09/03 13:17:36;;;;;;;7.77;6.70;;;;;;;25.27;47.82;95136.09;6153299;28;104485;-67
2022/09/03 13:20:52;;;;;;;7.20;6.60;;;;;;;25.24;47.38;95136.75;6148867;28;103140;-68
2022/09/03 13:24:09;;;;;;;10.07;6.73;;;;;;;25.26;47.51;95129.19;6153976;28;103280;-68
2022/09/03 13:27:23;;;;;;;7.00;6.37;;;;;;;25.27;47.64;95129.97;6156469;28;104326;-68
2022/09/03 13:30:37;;;;;;;7.70;7.10;;;;;;;25.27;47.13;95130.75;6148751;28;105109;-70
2022/09/03 13:33:47;;;;;;;7.90;7.20;;;;;;;25.27;47.34;95130.75;6178749;28;105141;-69
2022/09/03 13:36:57;;;;;;;8.43;7.67;;;;;;;25.29;47.38;95127.75;6167452;28;103100;-69
2022/09/03 13:40:10;;;;;;;8.17;7.50;;;;;;;25.27;47.13;95125.38;6154537;28;103203;-68
2022/09/03 13:43:22;;;;;;;7.70;7.10;;;;;;;25.31;47.30;95128.19;6157484;28;103186;-68
2022/09/03 13:46:32;;;;;;;7.93;7.03;;;;;;;25.30;46.80;95122.06;6164877;28;103172;-69
2022/09/03 13:53:06;;;;;;;6.57;6.07;;;;;;;25.21;46.13;95121.34;6146458;28;103936;-67
2022/09/03 13:56:21;;;;;;;6.47;5.90;;;;;;;25.23;45.94;95112.97;6163191;28;104192;-71
2022/09/03 13:59:32;;;;;;;5.40;4.77;;;;;;;25.31;45.41;95122.84;6167035;28;103197;-71
2022/09/03 14:02:50;;;;;;;6.43;5.83;;;;;;;25.33;45.78;95123.28;6166655;28;103526;-68
2022/09/03 14:06:02;;;;;;;5.20;4.80;;;;;;;25.33;45.95;95113.38;6150696;28;103154;-66
2022/09/03 14:09:14;;;;;;;5.23;4.83;;;;;;;25.27;45.54;95122.72;6160235;28;103915;-70
2022/09/03 14:12:23;;;;;;;4.30;3.90;;;;;;;25.21;44.84;95125.91;6174616;28;103892;-69
2022/09/03 14:15:30;;;;;;;4.77;4.00;;;;;;;25.14;45.36;95125.63;6158246;28;103333;-70
2022/09/03 14:18:42;;;;;;;10.00;4.90;;;;;;;25.17;45.62;95133.00;6150578;28;103428;-70
2022/09/03 14:21:53;;;;;;;7.77;4.70;;;;;;;25.25;45.43;95126.81;6163923;28;104237;-71
2022/09/03 14:25:00;;;;;;;7.63;5.30;;;;;;;25.21;46.28;95134.72;6161727;28;103210;-70
2022/09/03 14:28:28;;;;;;;9.93;5.77;;;;;;;25.21;46.83;95131.25;6148344;28;104040;-69
2022/09/03 14:32:00;;;;;;;8.20;5.80;;;;;;;25.29;46.57;95125.06;6160973;28;104085;-70
2022/09/03 14:35:31;;;;;;;6.30;5.70;;;;;;;25.34;46.68;95130.22;6157725;28;105555;-70
2022/09/03 14:38:56;;;;;;;5.97;5.47;;;;;;;25.38;46.62;95120.47;6150371;28;104978;-71
2022/09/03 14:42:31;;;;;;;6.87;6.17;;;;;;;25.36;46.83;95122.66;6162016;28;106037;-70